createdAt,value
2018-12-30T00:01:23.475Z,73.00
2018-12-30T00:03:53.570Z,61.57
2018-12-30T00:06:23.566Z,60.40
2018-12-30T00:08:55.499Z,59.57
2018-12-30T00:11:24.857Z,100.90
2018-12-30T00:13:54.001Z,150.20
2018-12-30T00:16:24.687Z,78.53
2018-12-30T00:18:58.377Z,125.87
2018-12-30T00:21:29.065Z,249.10
2018-12-30T00:24:00.607Z,162.90
2018-12-30T00:26:30.964Z,110.33
2018-12-30T00:29:01.853Z,107.73
2018-12-30T00:31:33.644Z,90.17
2018-12-30T00:34:03.531Z,114.67
2018-12-30T00:36:33.781Z,156.27
2018-12-30T00:39:06.032Z,105.97
2018-12-30T00:41:35.050Z,134.00
2018-12-30T00:44:05.652Z,161.57
2018-12-30T00:46:37.246Z,116.83
2018-12-30T00:49:06.643Z,175.37
2018-12-30T00:51:39.334Z,73.00
2018-12-30T00:54:08.774Z,96.43
2018-12-30T00:56:38.832Z,325.53
2018-12-30T00:59:09.402Z,116.67
2018-12-30T01:01:38.822Z,72.43
2018-12-30T01:04:08.175Z,81.70
2018-12-30T01:06:38.696Z,111.37
2018-12-30T01:09:12.232Z,180.17
2018-12-30T01:11:41.767Z,89.07
2018-12-30T01:14:10.977Z,76.57
2018-12-30T01:16:41.039Z,182.67
2018-12-30T01:19:10.847Z,179.70
2018-12-30T01:21:42.186Z,216.53
2018-12-30T01:24:13.087Z,220.30
2018-12-30T01:26:42.177Z,203.23
2018-12-30T01:29:13.960Z,160.00
2018-12-30T01:31:45.166Z,86.23
2018-12-30T01:34:18.351Z,101.30
2018-12-30T01:36:48.378Z,150.73
2018-12-30T01:39:20.545Z,400.83
2018-12-30T01:41:49.561Z,351.47
2018-12-30T01:44:19.890Z,148.97
2018-12-30T01:46:53.134Z,210.93
2018-12-30T01:49:22.106Z,375.53
2018-12-30T01:51:52.179Z,182.90
2018-12-30T01:54:22.604Z,105.13
2018-12-30T01:56:51.831Z,437.27
2018-12-30T01:59:20.809Z,179.27
2018-12-30T02:01:50.096Z,157.23
2018-12-30T02:04:19.724Z,81.17
2018-12-30T02:06:50.306Z,122.50
2018-12-30T02:09:20.976Z,199.27
2018-12-30T02:11:50.819Z,66.70
2018-12-30T02:14:22.239Z,218.93
2018-12-30T02:16:53.216Z,94.50
2018-12-30T02:19:23.956Z,180.30
2018-12-30T02:21:52.843Z,62.93
2018-12-30T02:24:22.004Z,212.23
2018-12-30T02:26:51.223Z,418.67
2018-12-30T02:29:21.923Z,125.27
2018-12-30T02:31:50.512Z,96.23
2018-12-30T02:34:19.378Z,112.60
2018-12-30T02:36:49.374Z,199.83
2018-12-30T02:39:19.895Z,178.73
2018-12-30T02:41:50.437Z,96.50
2018-12-30T02:44:21.543Z,156.07
2018-12-30T02:46:50.930Z,111.03
2018-12-30T02:49:19.493Z,81.67
2018-12-30T02:51:50.415Z,152.10
2018-12-30T02:54:19.831Z,185.27
2018-12-30T02:56:49.076Z,223.40
2018-12-30T02:59:18.872Z,184.17
2018-12-30T03:01:47.882Z,206.47
2018-12-30T03:04:18.885Z,191.90
2018-12-30T03:06:48.548Z,237.60
2018-12-30T03:09:19.876Z,160.50
2018-12-30T03:11:50.682Z,297.60
2018-12-30T03:14:21.546Z,146.63
2018-12-30T03:16:52.409Z,166.03
2018-12-30T03:19:22.616Z,177.10
2018-12-30T03:21:59.161Z,114.47
2018-12-30T03:24:23.644Z,516.83
2018-12-30T03:26:54.391Z,476.20
2018-12-30T03:29:24.164Z,125.90
2018-12-30T03:31:53.763Z,356.97
2018-12-30T03:34:24.310Z,149.43
2018-12-30T03:36:58.516Z,328.87
2018-12-30T03:39:27.887Z,520.17
2018-12-30T03:41:57.183Z,392.97
2018-12-30T03:44:27.091Z,351.00
2018-12-30T03:46:56.724Z,449.10
2018-12-30T03:49:29.404Z,570.60
2018-12-30T03:52:08.062Z,591.17
2018-12-30T03:54:32.380Z,523.43
2018-12-30T03:57:02.318Z,317.97
2018-12-30T03:59:31.767Z,237.50
2018-12-30T04:02:00.851Z,300.27
2018-12-30T04:04:30.744Z,328.87
2018-12-30T04:07:00.994Z,381.40
2018-12-30T04:09:30.851Z,349.40
2018-12-30T04:12:00.885Z,289.83
2018-12-30T04:14:31.075Z,244.17
2018-12-30T04:17:00.441Z,185.63
2018-12-30T04:19:30.886Z,169.30
2018-12-30T04:22:00.920Z,245.40
2018-12-30T04:24:31.027Z,495.77
2018-12-30T04:27:00.235Z,242.07
2018-12-30T04:29:31.477Z,531.53
2018-12-30T04:32:02.462Z,312.73
2018-12-30T04:34:31.729Z,227.40
2018-12-30T04:37:02.116Z,272.77
2018-12-30T04:39:31.999Z,391.03
2018-12-30T04:42:02.999Z,234.53
2018-12-30T04:44:32.945Z,240.30
2018-12-30T04:47:03.352Z,128.13
2018-12-30T04:49:34.613Z,287.57
2018-12-30T04:52:04.119Z,387.07
2018-12-30T04:54:34.049Z,219.03
2018-12-30T04:57:03.394Z,179.43
2018-12-30T04:59:34.934Z,177.63
2018-12-30T05:02:05.954Z,246.30
2018-12-30T05:04:35.954Z,521.73
2018-12-30T05:07:05.844Z,516.93
2018-12-30T05:09:35.127Z,339.60
2018-12-30T05:12:05.437Z,243.73
2018-12-30T05:14:35.995Z,431.13
2018-12-30T05:17:05.881Z,326.33
2018-12-30T05:19:36.701Z,386.70
2018-12-30T05:22:07.375Z,609.80
2018-12-30T05:24:36.925Z,655.67
2018-12-30T05:27:05.800Z,670.47
2018-12-30T05:29:35.480Z,451.07
2018-12-30T05:32:05.221Z,583.27
2018-12-30T05:34:36.075Z,542.77
2018-12-30T05:37:06.784Z,508.30
2018-12-30T05:39:37.799Z,590.77
2018-12-30T05:42:08.027Z,357.00
2018-12-30T05:44:38.057Z,557.00
2018-12-30T05:47:11.105Z,552.53
2018-12-30T05:49:41.537Z,373.77
2018-12-30T05:52:11.419Z,604.00
2018-12-30T05:54:42.473Z,444.70
2018-12-30T05:57:13.884Z,436.00
2018-12-30T05:59:42.754Z,654.03
2018-12-30T06:02:13.399Z,467.43
2018-12-30T06:04:43.214Z,465.47
2018-12-30T06:07:13.461Z,716.27
2018-12-30T06:09:44.399Z,347.53
2018-12-30T06:12:13.639Z,365.03
2018-12-30T06:14:43.726Z,382.37
2018-12-30T06:17:13.844Z,523.60
2018-12-30T06:19:43.404Z,451.63
2018-12-30T06:22:12.667Z,411.53
2018-12-30T06:24:43.339Z,475.90
2018-12-30T06:27:12.575Z,443.13
2018-12-30T06:29:42.297Z,431.67
2018-12-30T06:32:11.157Z,527.70
2018-12-30T06:34:42.136Z,509.07
2018-12-30T06:37:12.981Z,529.43
2018-12-30T06:39:43.161Z,200.73
2018-12-30T06:42:11.701Z,468.37
2018-12-30T06:44:41.364Z,206.97
2018-12-30T06:47:11.492Z,510.43
2018-12-30T06:49:41.758Z,203.83
2018-12-30T06:52:11.923Z,336.37
2018-12-30T06:54:41.760Z,280.13
2018-12-30T06:57:12.864Z,257.00
2018-12-30T06:59:42.189Z,133.63
2018-12-30T07:02:11.016Z,165.73
2018-12-30T07:04:44.088Z,169.13
2018-12-30T07:07:14.923Z,589.40
2018-12-30T07:09:45.333Z,407.43
2018-12-30T07:12:14.676Z,148.00
2018-12-30T07:14:44.251Z,185.40
2018-12-30T07:17:14.439Z,160.10
2018-12-30T07:19:45.365Z,412.83
2018-12-30T07:22:17.369Z,617.33
2018-12-30T07:24:46.577Z,313.83
2018-12-30T07:27:15.469Z,514.93
2018-12-30T07:29:44.870Z,233.20
2018-12-30T07:32:15.134Z,281.60
2018-12-30T07:34:46.101Z,123.23
2018-12-30T07:37:17.684Z,127.63
2018-12-30T07:39:48.252Z,205.83
2018-12-30T07:42:18.675Z,434.27
2018-12-30T07:44:48.379Z,572.43
2018-12-30T07:47:17.993Z,270.37
2018-12-30T07:49:47.667Z,451.97
2018-12-30T07:52:17.224Z,325.27
2018-12-30T07:54:46.579Z,140.23
2018-12-30T07:57:16.316Z,360.90
2018-12-30T07:59:45.727Z,139.27
2018-12-30T08:02:16.862Z,152.40
2018-12-30T08:04:46.069Z,139.87
2018-12-30T08:07:16.403Z,220.83
2018-12-30T08:09:46.654Z,175.90
2018-12-30T08:12:17.932Z,129.93
2018-12-30T08:14:47.436Z,120.50
2018-12-30T08:17:17.845Z,67.87
2018-12-30T08:19:48.248Z,71.80
2018-12-30T08:22:18.092Z,68.40
2018-12-30T08:24:47.672Z,60.23
2018-12-30T08:27:18.467Z,44.20
2018-12-30T08:29:48.036Z,65.27
2018-12-30T08:32:17.338Z,56.07
2018-12-30T08:34:47.665Z,52.30
2018-12-30T08:37:16.685Z,76.17
2018-12-30T08:39:46.142Z,34.20
2018-12-30T08:42:17.502Z,41.57
2018-12-30T08:44:47.195Z,46.73
2018-12-30T08:47:18.295Z,52.70
2018-12-30T08:49:48.032Z,57.53
2018-12-30T08:52:17.495Z,50.70
2018-12-30T08:54:47.833Z,46.43
2018-12-30T08:57:18.407Z,52.03
2018-12-30T08:59:48.949Z,41.33
2018-12-30T09:02:19.003Z,50.63
2018-12-30T09:04:49.552Z,61.80
2018-12-30T09:07:18.363Z,44.17
2018-12-30T09:09:47.970Z,37.80
2018-12-30T09:12:18.164Z,40.60
2018-12-30T09:14:47.267Z,40.60
2018-12-30T09:17:18.319Z,46.87
2018-12-30T09:19:49.742Z,39.10
2018-12-30T09:22:19.723Z,42.30
2018-12-30T09:24:49.568Z,37.63
2018-12-30T09:27:19.050Z,38.80
2018-12-30T09:29:49.290Z,47.80
2018-12-30T09:32:19.625Z,38.37
2018-12-30T09:34:50.046Z,39.90
2018-12-30T09:37:19.575Z,39.13
2018-12-30T09:39:50.596Z,35.63
2018-12-30T09:42:21.371Z,38.97
2018-12-30T09:44:53.963Z,42.00
2018-12-30T09:47:23.663Z,33.57
2018-12-30T09:49:56.005Z,36.40
2018-12-30T09:52:25.257Z,40.67
2018-12-30T09:54:53.938Z,35.90
2018-12-30T09:57:24.075Z,61.57
2018-12-30T09:59:53.130Z,43.53
2018-12-30T10:02:23.103Z,42.63
2018-12-30T10:04:54.130Z,32.47
2018-12-30T10:07:23.280Z,37.47
2018-12-30T10:09:53.870Z,36.07
2018-12-30T10:12:23.330Z,89.10
2018-12-30T10:14:54.099Z,52.67
2018-12-30T10:17:25.862Z,104.47
2018-12-30T10:19:55.245Z,38.93
2018-12-30T10:22:24.703Z,33.03
2018-12-30T10:24:58.841Z,34.80
2018-12-30T10:27:30.425Z,22.20
2018-12-30T10:29:59.755Z,19.23
2018-12-30T10:32:34.048Z,23.83
2018-12-30T10:35:05.483Z,20.90
2018-12-30T10:37:35.563Z,26.33
2018-12-30T10:40:05.758Z,24.73
2018-12-30T10:42:39.353Z,27.17
2018-12-30T10:45:11.568Z,23.70
2018-12-30T10:47:42.930Z,22.47
2018-12-30T10:50:12.448Z,20.33
2018-12-30T10:52:41.695Z,24.00
2018-12-30T10:55:11.341Z,22.00
2018-12-30T10:57:41.419Z,23.23
2018-12-30T11:00:11.555Z,30.20
2018-12-30T11:02:43.955Z,26.80
2018-12-30T11:05:13.623Z,23.70
2018-12-30T11:07:44.009Z,41.37
2018-12-30T11:10:14.286Z,266.37
2018-12-30T11:12:43.955Z,29.57
2018-12-30T11:15:14.035Z,29.70
2018-12-30T11:17:43.307Z,21.40
2018-12-30T11:20:12.915Z,20.90
2018-12-30T11:22:42.936Z,21.50
2018-12-30T11:25:12.824Z,22.93
2018-12-30T11:27:43.093Z,23.60
2018-12-30T11:30:13.585Z,23.73
2018-12-30T11:32:49.173Z,27.00
2018-12-30T11:35:20.753Z,23.37
2018-12-30T11:37:51.783Z,26.17
2018-12-30T11:40:22.927Z,22.77
2018-12-30T11:42:52.670Z,25.20
2018-12-30T11:45:25.332Z,23.87
2018-12-30T11:47:56.077Z,26.33
2018-12-30T11:50:26.557Z,26.27
2018-12-30T11:52:58.244Z,28.53
2018-12-30T11:55:28.206Z,27.97
2018-12-30T11:58:00.357Z,26.90
2018-12-30T12:00:29.722Z,28.80
2018-12-30T12:02:59.253Z,26.60
2018-12-30T12:05:28.655Z,29.33
2018-12-30T12:07:59.400Z,28.37
2018-12-30T12:10:30.479Z,26.27
2018-12-30T12:13:00.555Z,27.70
2018-12-30T12:15:30.589Z,27.30
2018-12-30T12:17:59.818Z,26.47
2018-12-30T12:20:28.765Z,29.23
2018-12-30T12:22:58.846Z,29.13
2018-12-30T12:25:28.727Z,29.30
2018-12-30T12:28:00.574Z,27.53
2018-12-30T12:30:30.694Z,32.37
2018-12-30T12:33:00.521Z,32.00
2018-12-30T12:35:31.114Z,45.37
2018-12-30T12:38:02.030Z,44.57
2018-12-30T12:40:31.302Z,33.83
2018-12-30T12:43:02.128Z,28.80
2018-12-30T12:45:32.167Z,79.37
2018-12-30T12:48:02.131Z,68.20
2018-12-30T12:50:31.630Z,61.13
2018-12-30T12:53:01.075Z,52.53
2018-12-30T12:55:31.263Z,25.77
2018-12-30T12:58:01.026Z,31.93
2018-12-30T13:00:30.407Z,25.17
2018-12-30T13:03:00.672Z,24.00
2018-12-30T13:05:31.585Z,23.33
2018-12-30T13:08:01.235Z,26.00
2018-12-30T13:10:30.385Z,25.17
2018-12-30T13:12:59.802Z,28.77
2018-12-30T13:15:31.351Z,27.50
2018-12-30T13:18:00.745Z,29.67
2018-12-30T13:20:30.762Z,29.07
2018-12-30T13:23:03.662Z,32.23
2018-12-30T13:25:34.343Z,31.57
2018-12-30T13:28:07.510Z,31.07
2018-12-30T13:30:38.740Z,28.47
2018-12-30T13:33:10.287Z,28.80
2018-12-30T13:35:43.539Z,26.87
2018-12-30T13:38:13.190Z,23.60
2018-12-30T13:40:45.055Z,27.73
2018-12-30T13:43:17.693Z,27.17
2018-12-30T13:45:47.256Z,27.57
2018-12-30T13:48:18.808Z,25.67
2018-12-30T13:50:48.645Z,24.77
2018-12-30T13:53:19.640Z,25.60
2018-12-30T13:55:49.252Z,25.83
2018-12-30T13:58:18.336Z,26.90
2018-12-30T14:00:47.747Z,31.00
2018-12-30T14:03:20.053Z,35.60
2018-12-30T14:05:50.642Z,34.57
2018-12-30T14:08:21.915Z,32.07
2018-12-30T14:10:52.898Z,33.80
2018-12-30T14:13:27.839Z,33.00
2018-12-30T14:15:58.705Z,39.50
2018-12-30T14:18:29.831Z,36.40
2018-12-30T14:21:00.048Z,38.90
2018-12-30T14:23:30.494Z,39.50
2018-12-30T14:26:00.348Z,36.40
2018-12-30T14:28:32.166Z,34.10
2018-12-30T14:31:01.664Z,39.90
2018-12-30T14:33:32.404Z,38.10
2018-12-30T14:36:03.516Z,39.93
2018-12-30T14:38:33.240Z,41.37
2018-12-30T14:41:03.593Z,39.20
2018-12-30T14:43:32.886Z,40.23
2018-12-30T14:46:03.870Z,38.90
2018-12-30T14:48:34.205Z,39.47
2018-12-30T14:51:04.535Z,41.10
2018-12-30T14:53:34.128Z,41.73
2018-12-30T14:56:03.610Z,43.60
2018-12-30T14:58:35.243Z,42.07
2018-12-30T15:01:05.408Z,40.53
2018-12-30T15:03:35.271Z,46.47
2018-12-30T15:06:04.901Z,42.63
2018-12-30T15:08:34.613Z,45.73
2018-12-30T15:11:07.534Z,45.63
2018-12-30T15:13:37.668Z,45.70
2018-12-30T15:16:09.198Z,44.97
2018-12-30T15:18:39.844Z,50.20
2018-12-30T15:21:09.648Z,49.30
2018-12-30T15:23:39.587Z,50.47
2018-12-30T15:26:08.820Z,47.80
2018-12-30T15:28:39.421Z,58.20
2018-12-30T15:31:09.953Z,54.50
2018-12-30T15:33:39.504Z,57.17
2018-12-30T15:36:12.663Z,52.83
2018-12-30T15:38:42.356Z,54.10
2018-12-30T15:41:13.077Z,57.27
2018-12-30T15:43:42.601Z,59.87
2018-12-30T15:46:13.249Z,61.83
2018-12-30T15:48:43.413Z,58.40
2018-12-30T15:51:13.475Z,63.77
2018-12-30T15:53:44.006Z,58.47
2018-12-30T15:56:15.015Z,59.37
2018-12-30T15:58:45.314Z,60.13
2018-12-30T16:01:16.200Z,60.33
2018-12-30T16:03:48.084Z,59.10
2018-12-30T16:06:17.192Z,60.50
2018-12-30T16:08:47.052Z,67.17
2018-12-30T16:11:17.880Z,65.13
2018-12-30T16:13:49.062Z,65.70
2018-12-30T16:16:19.637Z,64.37
2018-12-30T16:18:49.017Z,74.43
2018-12-30T16:21:18.529Z,85.40
2018-12-30T16:23:49.134Z,71.47
2018-12-30T16:26:20.670Z,73.07
2018-12-30T16:28:49.952Z,71.57
2018-12-30T16:31:27.905Z,74.97
2018-12-30T16:33:52.477Z,63.50
2018-12-30T16:36:21.887Z,62.27
2018-12-30T16:38:51.040Z,69.97
2018-12-30T16:41:21.610Z,61.73
2018-12-30T16:43:51.390Z,69.00
2018-12-30T16:46:22.561Z,84.57
2018-12-30T16:48:53.131Z,138.50
2018-12-30T16:51:22.656Z,115.13
2018-12-30T16:53:53.337Z,100.43
2018-12-30T16:56:24.297Z,119.07
2018-12-30T16:58:54.650Z,87.10
2018-12-30T17:01:25.645Z,82.07
2018-12-30T17:03:54.587Z,109.50
2018-12-30T17:06:24.685Z,85.00
2018-12-30T17:08:55.202Z,155.33
2018-12-30T17:11:23.972Z,139.70
2018-12-30T17:13:53.373Z,104.97
2018-12-30T17:16:23.890Z,135.80
2018-12-30T17:18:56.093Z,139.40
2018-12-30T17:21:26.045Z,115.40
2018-12-30T17:23:55.972Z,132.57
2018-12-30T17:26:25.767Z,78.40
2018-12-30T17:28:59.742Z,117.47
2018-12-30T17:31:29.933Z,89.20
2018-12-30T17:33:59.552Z,90.77
2018-12-30T17:36:30.100Z,78.70
2018-12-30T17:39:00.765Z,92.30
2018-12-30T17:41:31.707Z,89.43
2018-12-30T17:44:01.878Z,86.47
2018-12-30T17:46:34.163Z,92.40
2018-12-30T17:49:04.918Z,92.00
2018-12-30T17:51:39.641Z,82.07
2018-12-30T17:54:15.141Z,89.37
2018-12-30T17:56:42.539Z,108.13
2018-12-30T17:59:12.826Z,92.97
2018-12-30T18:01:43.330Z,102.33
2018-12-30T18:04:13.524Z,106.70
2018-12-30T18:06:44.334Z,113.03
2018-12-30T18:09:15.676Z,107.60
2018-12-30T18:11:45.693Z,108.27
2018-12-30T18:14:15.811Z,124.30
2018-12-30T18:16:45.496Z,757.40
2018-12-30T18:19:15.154Z,624.67
2018-12-30T18:21:45.493Z,290.70
2018-12-30T18:24:15.283Z,153.57
2018-12-30T18:26:47.071Z,122.47
2018-12-30T18:29:19.229Z,229.87
2018-12-30T18:31:50.155Z,214.00
2018-12-30T18:34:20.118Z,220.00
2018-12-30T18:36:51.924Z,232.90
2018-12-30T18:39:21.781Z,91.73
2018-12-30T18:41:51.799Z,86.23
2018-12-30T18:44:22.315Z,86.10
2018-12-30T18:46:51.920Z,71.90
2018-12-30T18:49:21.274Z,86.97
2018-12-30T18:51:51.073Z,96.77
2018-12-30T18:54:22.851Z,93.30
2018-12-30T18:56:52.873Z,103.23
2018-12-30T18:59:23.009Z,97.93
2018-12-30T19:01:56.638Z,131.03
2018-12-30T19:04:25.913Z,107.17
2018-12-30T19:06:55.816Z,98.33
2018-12-30T19:09:25.568Z,99.47
2018-12-30T19:11:55.513Z,133.00
2018-12-30T19:14:25.377Z,120.17
2018-12-30T19:16:55.463Z,239.07
2018-12-30T19:19:25.409Z,161.30
2018-12-30T19:21:58.341Z,82.47
2018-12-30T19:24:28.831Z,72.10
2018-12-30T19:26:58.428Z,66.93
2018-12-30T19:29:28.618Z,68.90
2018-12-30T19:31:58.454Z,80.13
2018-12-30T19:34:28.186Z,67.83
2018-12-30T19:36:58.788Z,87.30
2018-12-30T19:39:29.243Z,114.90
2018-12-30T19:41:59.506Z,396.63
2018-12-30T19:44:28.633Z,638.27
2018-12-30T19:46:58.200Z,606.70
2018-12-30T19:49:29.260Z,518.73
2018-12-30T19:51:58.698Z,705.87
2018-12-30T19:54:30.333Z,622.40
2018-12-30T19:57:00.398Z,653.07
2018-12-30T19:59:30.468Z,495.67
2018-12-30T20:02:01.431Z,167.07
2018-12-30T20:04:31.006Z,351.63
2018-12-30T20:07:00.646Z,424.17
2018-12-30T20:09:30.566Z,984.97
2018-12-30T20:12:00.620Z,218.97
2018-12-30T20:14:30.321Z,303.57
2018-12-30T20:16:59.514Z,375.23
2018-12-30T20:19:28.758Z,205.10
2018-12-30T20:21:58.706Z,345.67
2018-12-30T20:24:29.315Z,454.63
2018-12-30T20:27:00.159Z,425.93
2018-12-30T20:29:29.342Z,512.43
2018-12-30T20:31:58.985Z,316.97
2018-12-30T20:34:30.076Z,137.87
2018-12-30T20:37:00.187Z,373.03
2018-12-30T20:39:30.566Z,399.20
2018-12-30T20:42:00.240Z,248.07
2018-12-30T20:44:29.286Z,45.23
2018-12-30T20:47:00.303Z,40.07
2018-12-30T20:49:29.478Z,47.57
2018-12-30T20:51:59.640Z,72.93
2018-12-30T20:54:29.525Z,52.53
2018-12-30T20:56:58.750Z,91.83
2018-12-30T20:59:29.573Z,71.40
2018-12-30T21:01:59.227Z,70.60
2018-12-30T21:04:28.953Z,68.87
2018-12-30T21:06:58.788Z,57.77
2018-12-30T21:09:29.488Z,57.10
2018-12-30T21:11:59.139Z,51.07
2018-12-30T21:14:30.263Z,46.93
2018-12-30T21:16:59.648Z,56.43
2018-12-30T21:19:29.238Z,54.23
2018-12-30T21:21:59.137Z,56.97
2018-12-30T21:24:29.351Z,56.63
2018-12-30T21:27:00.738Z,53.73
2018-12-30T21:29:30.924Z,44.60
2018-12-30T21:32:03.818Z,35.73
2018-12-30T21:34:37.906Z,32.70
2018-12-30T21:37:10.788Z,33.90
2018-12-30T21:39:41.536Z,31.70
2018-12-30T21:42:12.842Z,31.97
2018-12-30T21:44:45.058Z,30.57
2018-12-30T21:47:16.527Z,32.83
2018-12-30T21:49:48.886Z,36.53
2018-12-30T21:52:18.331Z,38.30
2018-12-30T21:54:48.950Z,36.47
2018-12-30T21:57:18.863Z,36.60
2018-12-30T21:59:50.328Z,40.20
2018-12-30T22:02:20.638Z,123.20
2018-12-30T22:04:50.854Z,164.13
2018-12-30T22:07:21.158Z,88.10
2018-12-30T22:09:51.343Z,543.07
2018-12-30T22:12:21.888Z,192.43
2018-12-30T22:14:51.926Z,349.97
2018-12-30T22:17:24.574Z,323.87
2018-12-30T22:19:54.111Z,283.47
2018-12-30T22:22:23.551Z,160.43
2018-12-30T22:24:53.410Z,119.07
2018-12-30T22:27:23.445Z,96.33
2018-12-30T22:29:53.288Z,248.70
2018-12-30T22:32:24.523Z,167.23
2018-12-30T22:34:56.191Z,87.37
2018-12-30T22:37:26.523Z,168.97
2018-12-30T22:39:56.823Z,252.43
2018-12-30T22:42:32.644Z,143.03
2018-12-30T22:44:59.290Z,127.30
2018-12-30T22:47:32.191Z,148.17
2018-12-30T22:50:03.187Z,207.60
2018-12-30T22:52:33.143Z,104.67
2018-12-30T22:55:03.928Z,107.10
2018-12-30T22:57:33.955Z,149.27
2018-12-30T23:00:06.018Z,145.03
2018-12-30T23:02:38.045Z,208.33
2018-12-30T23:05:08.751Z,267.13
2018-12-30T23:07:39.475Z,164.83
2018-12-30T23:10:11.851Z,58.13
2018-12-30T23:12:42.427Z,305.83
2018-12-30T23:15:12.673Z,226.77
2018-12-30T23:17:43.164Z,217.83
2018-12-30T23:20:12.705Z,286.47
2018-12-30T23:22:42.058Z,159.30
2018-12-30T23:25:17.085Z,167.30
2018-12-30T23:27:46.693Z,188.70
2018-12-30T23:30:16.213Z,197.47
2018-12-30T23:32:46.503Z,117.27
2018-12-30T23:35:18.227Z,69.00
2018-12-30T23:37:49.153Z,91.63
2018-12-30T23:40:20.956Z,118.60
2018-12-30T23:42:52.107Z,71.87
2018-12-30T23:45:22.703Z,134.83
2018-12-30T23:47:53.540Z,38.60
2018-12-30T23:50:25.480Z,122.70
2018-12-30T23:52:55.331Z,255.33
2018-12-30T23:55:25.089Z,154.77
2018-12-30T23:57:56.474Z,170.50
